05/30 07:00 更新

3,000ftに雲が少し

地上風: 方向不定 2kt

上空風(熊谷ウインドプロファイラ)
13,000ft: 未計測
10,000ft: 未計測
 7,000ft: 180°13kt
 3,000ft: 230°6kt

地上: 19℃
上空: -6.9℃

日没: 18:50

実況天気図


予想天気図


RJTJ 292200Z VRB02KT 9999 FEW030 19/11 Q1020 RMK 1CU030 A3014=

GPV気象予報
気象庁
日本気象協会

玉淀ダム放流量(1,000m3/sを超えた7時間後にDZ冠水)
太郎衛門橋テレメータ水位(11mでDZ冠水)

skydive.jp